sensor_id;sensor_type;location;lat;lon;timestamp;pressure;altitude;pressure_sealevel;temperature;humidity
55540;BME280;41384;51.418;7.286;2022-07-29T00:02:02;99889.66;;;21.98;43.14
55540;BME280;41384;51.418;7.286;2022-07-29T00:04:27;99897.13;;;21.72;43.35
55540;BME280;41384;51.418;7.286;2022-07-29T00:06:53;99890.34;;;21.80;43.35
55540;BME280;41384;51.418;7.286;2022-07-29T00:09:18;99897.81;;;21.88;43.27
55540;BME280;41384;51.418;7.286;2022-07-29T00:11:43;99902.78;;;22.05;43.19
55540;BME280;41384;51.418;7.286;2022-07-29T00:14:09;99901.41;;;22.08;43.04
55540;BME280;41384;51.418;7.286;2022-07-29T00:16:34;99892.69;;;21.92;43.24
55540;BME280;41384;51.418;7.286;2022-07-29T00:19:00;99892.63;;;21.57;43.67
55540;BME280;41384;51.418;7.286;2022-07-29T00:21:25;99893.25;;;21.89;43.36
55540;BME280;41384;51.418;7.286;2022-07-29T00:23:50;99885.06;;;22.04;42.99
55540;BME280;41384;51.418;7.286;2022-07-29T00:26:16;99888.53;;;22.05;42.72
55540;BME280;41384;51.418;7.286;2022-07-29T00:28:41;99881.34;;;22.00;43.39
55540;BME280;41384;51.418;7.286;2022-07-29T00:31:07;99882.06;;;22.06;43.51
55540;BME280;41384;51.418;7.286;2022-07-29T00:33:33;99880.03;;;21.47;44.01
55540;BME280;41384;51.418;7.286;2022-07-29T00:35:58;99877.25;;;21.73;43.79
55540;BME280;41384;51.418;7.286;2022-07-29T00:38:23;99865.13;;;21.76;43.48
55540;BME280;41384;51.418;7.286;2022-07-29T00:40:48;99870.72;;;21.84;43.93
55540;BME280;41384;51.418;7.286;2022-07-29T00:43:14;99863.84;;;21.68;43.55
55540;BME280;41384;51.418;7.286;2022-07-29T00:45:41;99862.69;;;21.79;44.25
55540;BME280;41384;51.418;7.286;2022-07-29T00:48:06;99858.63;;;21.82;44.34
55540;BME280;41384;51.418;7.286;2022-07-29T00:50:34;99854.91;;;21.78;44.21
55540;BME280;41384;51.418;7.286;2022-07-29T00:53:00;99853.56;;;21.80;44.10
55540;BME280;41384;51.418;7.286;2022-07-29T00:55:26;99849.53;;;21.78;44.31
55540;BME280;41384;51.418;7.286;2022-07-29T00:57:52;99844.69;;;21.29;44.97
55540;BME280;41384;51.418;7.286;2022-07-29T01:00:23;99843.47;;;21.56;44.93
55540;BME280;41384;51.418;7.286;2022-07-29T01:02:50;99837.25;;;21.61;44.78
55540;BME280;41384;51.418;7.286;2022-07-29T01:05:20;99838.03;;;21.62;44.79
55540;BME280;41384;51.418;7.286;2022-07-29T01:07:49;99837.53;;;21.60;44.37
55540;BME280;41384;51.418;7.286;2022-07-29T01:10:16;99831.41;;;21.54;44.46
55540;BME280;41384;51.418;7.286;2022-07-29T01:12:43;99827.91;;;21.53;44.51
55540;BME280;41384;51.418;7.286;2022-07-29T01:15:10;99831.13;;;21.55;44.30
55540;BME280;41384;51.418;7.286;2022-07-29T01:17:57;99815.81;;;21.56;44.46
55540;BME280;41384;51.418;7.286;2022-07-29T01:23:42;99817.78;;;21.40;44.69
55540;BME280;41384;51.418;7.286;2022-07-29T01:28:51;99815.88;;;21.46;44.52
55540;BME280;41384;51.418;7.286;2022-07-29T01:31:24;99813.22;;;21.46;44.24
55540;BME280;41384;51.418;7.286;2022-07-29T01:33:56;99807.31;;;21.43;44.91
55540;BME280;41384;51.418;7.286;2022-07-29T01:36:27;99805.44;;;21.39;44.95
55540;BME280;41384;51.418;7.286;2022-07-29T01:41:31;99808.66;;;21.41;44.94
55540;BME280;41384;51.418;7.286;2022-07-29T01:43:59;99811.38;;;21.36;45.09
55540;BME280;41384;51.418;7.286;2022-07-29T01:46:31;99810.81;;;21.39;45.22
55540;BME280;41384;51.418;7.286;2022-07-29T01:49:04;99805.44;;;21.39;45.31
55540;BME280;41384;51.418;7.286;2022-07-29T01:51:36;99800.13;;;21.34;45.22
55540;BME280;41384;51.418;7.286;2022-07-29T01:54:16;99801.22;;;21.27;45.08
55540;BME280;41384;51.418;7.286;2022-07-29T01:56:45;99794.28;;;21.21;45.70
55540;BME280;41384;51.418;7.286;2022-07-29T01:59:12;99785.16;;;21.22;45.74
55540;BME280;41384;51.418;7.286;2022-07-29T02:01:39;99797.06;;;21.06;46.17
55540;BME280;41384;51.418;7.286;2022-07-29T02:04:09;99798.66;;;21.12;45.74
55540;BME280;41384;51.418;7.286;2022-07-29T02:06:37;99790.56;;;21.17;45.60
55540;BME280;41384;51.418;7.286;2022-07-29T02:09:03;99789.75;;;21.17;45.92
55540;BME280;41384;51.418;7.286;2022-07-29T02:11:31;99792.19;;;21.13;46.20
55540;BME280;41384;51.418;7.286;2022-07-29T02:13:58;99794.91;;;21.08;45.83
55540;BME280;41384;51.418;7.286;2022-07-29T02:16:26;99789.84;;;21.01;46.71
55540;BME280;41384;51.418;7.286;2022-07-29T02:18:55;99778.31;;;21.01;46.97
55540;BME280;41384;51.418;7.286;2022-07-29T02:21:24;99778.88;;;20.97;46.83
55540;BME280;41384;51.418;7.286;2022-07-29T02:23:51;99772.50;;;20.83;47.15
55540;BME280;41384;51.418;7.286;2022-07-29T02:26:19;99771.13;;;20.91;47.38
55540;BME280;41384;51.418;7.286;2022-07-29T02:28:45;99772.19;;;20.90;47.00
55540;BME280;41384;51.418;7.286;2022-07-29T02:31:12;99762.84;;;20.82;47.40
55540;BME280;41384;51.418;7.286;2022-07-29T02:33:40;99762.31;;;20.69;47.29
55540;BME280;41384;51.418;7.286;2022-07-29T02:36:06;99763.91;;;20.86;47.72
55540;BME280;41384;51.418;7.286;2022-07-29T02:38:31;99773.81;;;20.85;47.62
55540;BME280;41384;51.418;7.286;2022-07-29T02:41:20;99777.88;;;20.83;48.14
55540;BME280;41384;51.418;7.286;2022-07-29T02:43:50;99771.69;;;20.77;48.10
55540;BME280;41384;51.418;7.286;2022-07-29T02:46:23;99769.25;;;20.76;48.61
55540;BME280;41384;51.418;7.286;2022-07-29T02:48:58;99778.69;;;20.68;48.99
55540;BME280;41384;51.418;7.286;2022-07-29T02:51:43;99780.56;;;20.67;48.86
55540;BME280;41384;51.418;7.286;2022-07-29T02:54:11;99786.47;;;20.64;48.05
55540;BME280;41384;51.418;7.286;2022-07-29T02:56:42;99784.06;;;20.68;48.45
55540;BME280;41384;51.418;7.286;2022-07-29T02:59:11;99780.53;;;20.73;48.21
55540;BME280;41384;51.418;7.286;2022-07-29T03:01:40;99776.25;;;20.71;48.80
55540;BME280;41384;51.418;7.286;2022-07-29T03:04:08;99775.44;;;20.76;48.70
55540;BME280;41384;51.418;7.286;2022-07-29T03:06:35;99770.91;;;20.71;48.50
55540;BME280;41384;51.418;7.286;2022-07-29T03:09:02;99766.91;;;20.64;48.03
55540;BME280;41384;51.418;7.286;2022-07-29T03:11:28;99763.66;;;20.72;48.30
55540;BME280;41384;51.418;7.286;2022-07-29T03:13:54;99766.88;;;20.74;47.96
55540;BME280;41384;51.418;7.286;2022-07-29T03:16:21;99763.13;;;20.70;48.43
55540;BME280;41384;51.418;7.286;2022-07-29T03:18:47;99763.50;;;20.48;48.55
55540;BME280;41384;51.418;7.286;2022-07-29T03:21:13;99762.66;;;20.58;49.14
55540;BME280;41384;51.418;7.286;2022-07-29T03:23:43;99762.63;;;20.63;48.94
55540;BME280;41384;51.418;7.286;2022-07-29T03:26:10;99763.97;;;20.60;49.23
55540;BME280;41384;51.418;7.286;2022-07-29T03:28:36;99759.97;;;20.58;49.44
55540;BME280;41384;51.418;7.286;2022-07-29T03:31:01;99760.22;;;20.61;49.61
55540;BME280;41384;51.418;7.286;2022-07-29T03:33:26;99755.72;;;20.51;49.63
55540;BME280;41384;51.418;7.286;2022-07-29T03:35:53;99754.91;;;20.51;49.93
55540;BME280;41384;51.418;7.286;2022-07-29T03:38:19;99751.13;;;20.52;50.17
55540;BME280;41384;51.418;7.286;2022-07-29T03:40:54;99756.00;;;20.45;50.41
55540;BME280;41384;51.418;7.286;2022-07-29T03:43:22;99753.34;;;20.39;50.79
55540;BME280;41384;51.418;7.286;2022-07-29T03:45:51;99758.97;;;20.43;51.25
55540;BME280;41384;51.418;7.286;2022-07-29T03:48:21;99772.09;;;20.39;51.75
55540;BME280;41384;51.418;7.286;2022-07-29T03:50:47;99774.00;;;20.39;51.41
55540;BME280;41384;51.418;7.286;2022-07-29T03:53:13;99789.00;;;20.35;51.24
55540;BME280;41384;51.418;7.286;2022-07-29T03:55:44;99801.88;;;20.33;51.27
55540;BME280;41384;51.418;7.286;2022-07-29T03:58:12;99801.06;;;20.37;50.92
55540;BME280;41384;51.418;7.286;2022-07-29T04:00:38;99795.97;;;20.25;51.36
55540;BME280;41384;51.418;7.286;2022-07-29T04:03:04;99800.81;;;20.34;51.30
55540;BME280;41384;51.418;7.286;2022-07-29T04:05:30;99806.91;;;20.50;50.29
55540;BME280;41384;51.418;7.286;2022-07-29T04:07:55;99818.16;;;20.52;50.69
55540;BME280;41384;51.418;7.286;2022-07-29T04:10:21;99823.28;;;20.48;50.31
55540;BME280;41384;51.418;7.286;2022-07-29T04:12:48;99819.22;;;20.56;49.77
55540;BME280;41384;51.418;7.286;2022-07-29T04:15:13;99814.69;;;20.56;50.13
55540;BME280;41384;51.418;7.286;2022-07-29T04:17:38;99824.34;;;20.47;49.92
55540;BME280;41384;51.418;7.286;2022-07-29T04:20:04;99837.47;;;20.54;50.01
55540;BME280;41384;51.418;7.286;2022-07-29T04:22:30;99836.91;;;20.62;48.89
55540;BME280;41384;51.418;7.286;2022-07-29T04:24:55;99836.44;;;20.39;49.22
55540;BME280;41384;51.418;7.286;2022-07-29T04:27:21;99838.06;;;20.25;49.81
55540;BME280;41384;51.418;7.286;2022-07-29T04:29:46;99849.81;;;20.45;49.10
55540;BME280;41384;51.418;7.286;2022-07-29T04:32:11;99846.88;;;20.51;48.41
55540;BME280;41384;51.418;7.286;2022-07-29T04:34:37;99839.63;;;20.47;49.12
55540;BME280;41384;51.418;7.286;2022-07-29T04:37:02;99850.63;;;20.45;49.91
55540;BME280;41384;51.418;7.286;2022-07-29T04:39:27;99863.75;;;20.52;49.47
55540;BME280;41384;51.418;7.286;2022-07-29T04:41:53;99844.97;;;20.52;50.47
55540;BME280;41384;51.418;7.286;2022-07-29T04:44:18;99847.97;;;20.24;51.49
55540;BME280;41384;51.418;7.286;2022-07-29T04:46:43;99860.84;;;20.33;51.56
55540;BME280;41384;51.418;7.286;2022-07-29T04:49:09;99856.53;;;20.26;52.97
55540;BME280;41384;51.418;7.286;2022-07-29T04:51:34;99863.50;;;20.17;55.29
55540;BME280;41384;51.418;7.286;2022-07-29T04:53:59;99868.09;;;20.17;57.85
55540;BME280;41384;51.418;7.286;2022-07-29T04:56:25;99867.28;;;20.11;59.05
55540;BME280;41384;51.418;7.286;2022-07-29T04:58:50;99871.03;;;20.00;61.96
55540;BME280;41384;51.418;7.286;2022-07-29T05:01:16;99865.13;;;19.92;62.81
55540;BME280;41384;51.418;7.286;2022-07-29T05:03:41;99853.03;;;19.64;61.91
55540;BME280;41384;51.418;7.286;2022-07-29T05:06:06;99853.88;;;18.95;63.89
55540;BME280;41384;51.418;7.286;2022-07-29T05:08:32;99851.03;;;18.59;64.76
55540;BME280;41384;51.418;7.286;2022-07-29T05:10:57;99844.63;;;19.24;66.08
55540;BME280;41384;51.418;7.286;2022-07-29T05:13:22;99842.75;;;19.14;66.12
55540;BME280;41384;51.418;7.286;2022-07-29T05:15:48;99855.97;;;18.88;67.92
55540;BME280;41384;51.418;7.286;2022-07-29T05:18:13;99847.34;;;19.34;67.69
55540;BME280;41384;51.418;7.286;2022-07-29T05:20:39;99856.50;;;19.54;66.29
55540;BME280;41384;51.418;7.286;2022-07-29T05:23:04;99852.75;;;19.55;64.39
55540;BME280;41384;51.418;7.286;2022-07-29T05:25:29;99851.53;;;19.04;65.63
55540;BME280;41384;51.418;7.286;2022-07-29T05:27:55;99854.06;;;19.37;66.26
55540;BME280;41384;51.418;7.286;2022-07-29T05:30:21;99848.19;;;19.56;64.28
55540;BME280;41384;51.418;7.286;2022-07-29T05:32:47;99846.59;;;19.65;66.68
55540;BME280;41384;51.418;7.286;2022-07-29T05:35:13;99854.09;;;19.73;68.11
55540;BME280;41384;51.418;7.286;2022-07-29T05:37:38;99866.69;;;19.78;66.54
55540;BME280;41384;51.418;7.286;2022-07-29T05:40:05;99863.19;;;19.72;65.40
55540;BME280;41384;51.418;7.286;2022-07-29T05:42:30;99866.97;;;19.81;66.32
55540;BME280;41384;51.418;7.286;2022-07-29T05:44:56;99857.84;;;19.88;67.35
55540;BME280;41384;51.418;7.286;2022-07-29T05:47:22;99854.91;;;19.74;67.08
55540;BME280;41384;51.418;7.286;2022-07-29T05:49:47;99855.78;;;19.90;67.54
55540;BME280;41384;51.418;7.286;2022-07-29T05:52:12;99857.91;;;19.98;67.25
55540;BME280;41384;51.418;7.286;2022-07-29T05:54:38;99851.19;;;20.06;67.47
55540;BME280;41384;51.418;7.286;2022-07-29T05:57:04;99846.13;;;20.09;66.00
55540;BME280;41384;51.418;7.286;2022-07-29T05:59:30;99853.63;;;20.12;66.28
55540;BME280;41384;51.418;7.286;2022-07-29T06:01:56;99855.22;;;20.19;65.40
55540;BME280;41384;51.418;7.286;2022-07-29T06:04:22;99858.16;;;20.17;66.58
55540;BME280;41384;51.418;7.286;2022-07-29T06:06:47;99869.69;;;20.18;65.55
55540;BME280;41384;51.418;7.286;2022-07-29T06:09:13;99868.88;;;20.27;64.08
55540;BME280;41384;51.418;7.286;2022-07-29T06:11:38;99871.28;;;20.24;64.86
55540;BME280;41384;51.418;7.286;2022-07-29T06:14:04;99867.28;;;20.37;65.48
55540;BME280;41384;51.418;7.286;2022-07-29T06:16:29;99866.75;;;20.14;66.35
55540;BME280;41384;51.418;7.286;2022-07-29T06:18:54;99867.78;;;20.44;66.20
55540;BME280;41384;51.418;7.286;2022-07-29T06:21:20;99871.22;;;20.60;66.71
55540;BME280;41384;51.418;7.286;2022-07-29T06:23:45;99875.78;;;20.70;66.90
55540;BME280;41384;51.418;7.286;2022-07-29T06:26:10;99881.66;;;20.77;64.99
55540;BME280;41384;51.418;7.286;2022-07-29T06:28:36;99870.69;;;20.79;64.59
55540;BME280;41384;51.418;7.286;2022-07-29T06:31:01;99872.28;;;20.85;63.59
55540;BME280;41384;51.418;7.286;2022-07-29T06:33:26;99877.06;;;20.98;63.72
55540;BME280;41384;51.418;7.286;2022-07-29T06:35:52;99874.09;;;21.00;63.15
55540;BME280;41384;51.418;7.286;2022-07-29T06:38:17;99872.19;;;21.06;62.79
55540;BME280;41384;51.418;7.286;2022-07-29T06:40:43;99876.72;;;21.10;64.25
55540;BME280;41384;51.418;7.286;2022-07-29T06:43:38;99878.44;;;20.75;62.32
55540;BME280;41384;51.418;7.286;2022-07-29T06:46:06;99877.34;;;20.92;62.59
55540;BME280;41384;51.418;7.286;2022-07-29T06:48:33;99873.78;;;21.12;61.73
55540;BME280;41384;51.418;7.286;2022-07-29T06:50:59;99874.03;;;21.10;63.82
55540;BME280;41384;51.418;7.286;2022-07-29T06:53:24;99882.38;;;21.09;61.38
55540;BME280;41384;51.418;7.286;2022-07-29T06:55:49;99878.63;;;21.10;60.09
55540;BME280;41384;51.418;7.286;2022-07-29T06:58:15;99875.91;;;21.15;61.73
55540;BME280;41384;51.418;7.286;2022-07-29T07:00:43;99882.91;;;21.11;61.01
55540;BME280;41384;51.418;7.286;2022-07-29T07:03:09;99884.28;;;21.03;60.79
55540;BME280;41384;51.418;7.286;2022-07-29T07:05:34;99882.06;;;21.26;61.59
55540;BME280;41384;51.418;7.286;2022-07-29T07:07:59;99882.03;;;21.31;60.87
55540;BME280;41384;51.418;7.286;2022-07-29T07:10:25;99883.31;;;21.39;60.79
55540;BME280;41384;51.418;7.286;2022-07-29T07:12:50;99880.09;;;21.37;60.45
55540;BME280;41384;51.418;7.286;2022-07-29T07:15:15;99879.28;;;21.41;59.34
55540;BME280;41384;51.418;7.286;2022-07-29T07:17:41;99892.09;;;21.55;59.16
55540;BME280;41384;51.418;7.286;2022-07-29T07:20:07;99891.84;;;20.91;61.06
55540;BME280;41384;51.418;7.286;2022-07-29T07:22:32;99888.66;;;21.44;58.12
55540;BME280;41384;51.418;7.286;2022-07-29T07:24:57;99896.31;;;21.71;56.83
55540;BME280;41384;51.418;7.286;2022-07-29T07:27:23;99900.94;;;21.66;56.55
55540;BME280;41384;51.418;7.286;2022-07-29T07:29:48;99894.66;;;21.76;57.51
55540;BME280;41384;51.418;7.286;2022-07-29T07:32:13;99902.44;;;21.82;57.14
55540;BME280;41384;51.418;7.286;2022-07-29T07:34:41;99896.94;;;21.98;56.99
55540;BME280;41384;51.418;7.286;2022-07-29T07:37:06;99900.06;;;22.10;58.21
55540;BME280;41384;51.418;7.286;2022-07-29T07:39:31;99901.16;;;22.09;58.44
55540;BME280;41384;51.418;7.286;2022-07-29T07:41:57;99897.41;;;22.05;59.04
55540;BME280;41384;51.418;7.286;2022-07-29T07:44:22;99894.22;;;22.03;59.39
55540;BME280;41384;51.418;7.286;2022-07-29T07:46:47;99899.78;;;21.77;59.18
55540;BME280;41384;51.418;7.286;2022-07-29T07:49:13;99898.63;;;21.38;60.89
55540;BME280;41384;51.418;7.286;2022-07-29T07:51:38;99903.84;;;21.69;59.58
55540;BME280;41384;51.418;7.286;2022-07-29T07:54:03;99893.44;;;21.52;59.12
55540;BME280;41384;51.418;7.286;2022-07-29T07:56:29;99891.91;;;21.86;58.40
55540;BME280;41384;51.418;7.286;2022-07-29T07:58:54;99895.41;;;22.21;57.89
55540;BME280;41384;51.418;7.286;2022-07-29T08:01:19;99892.91;;;22.30;58.95
55540;BME280;41384;51.418;7.286;2022-07-29T08:03:48;99903.47;;;22.51;58.68
55540;BME280;41384;51.418;7.286;2022-07-29T08:06:14;99901.91;;;22.15;56.04
55540;BME280;41384;51.418;7.286;2022-07-29T08:08:39;99900.28;;;22.49;56.28
55540;BME280;41384;51.418;7.286;2022-07-29T08:11:05;99895.16;;;22.52;57.10
55540;BME280;41384;51.418;7.286;2022-07-29T08:13:31;99904.09;;;22.72;57.05
55540;BME280;41384;51.418;7.286;2022-07-29T08:15:58;99907.13;;;22.89;57.31
55540;BME280;41384;51.418;7.286;2022-07-29T08:18:29;99904.53;;;23.03;55.45
55540;BME280;41384;51.418;7.286;2022-07-29T08:20:55;99893.38;;;23.15;55.19
55540;BME280;41384;51.418;7.286;2022-07-29T08:23:21;99904.50;;;23.33;54.75
55540;BME280;41384;51.418;7.286;2022-07-29T08:25:48;99904.66;;;23.42;54.78
55540;BME280;41384;51.418;7.286;2022-07-29T08:28:14;99904.44;;;22.89;54.17
55540;BME280;41384;51.418;7.286;2022-07-29T08:30:39;99913.28;;;22.36;56.13
55540;BME280;41384;51.418;7.286;2022-07-29T08:33:04;99903.69;;;22.84;56.32
55540;BME280;41384;51.418;7.286;2022-07-29T08:35:30;99901.03;;;23.27;53.67
55540;BME280;41384;51.418;7.286;2022-07-29T08:37:55;99909.53;;;22.91;54.05
55540;BME280;41384;51.418;7.286;2022-07-29T08:40:22;99906.59;;;22.87;53.69
55540;BME280;41384;51.418;7.286;2022-07-29T08:42:49;99902.69;;;22.50;54.38
55540;BME280;41384;51.418;7.286;2022-07-29T08:45:15;99907.13;;;22.36;52.17
55540;BME280;41384;51.418;7.286;2022-07-29T08:47:40;99911.50;;;21.92;54.42
55540;BME280;41384;51.418;7.286;2022-07-29T08:50:07;99904.22;;;22.27;56.19
55540;BME280;41384;51.418;7.286;2022-07-29T08:52:36;99911.66;;;22.35;53.67
55540;BME280;41384;51.418;7.286;2022-07-29T08:55:02;99906.06;;;22.32;53.48
55540;BME280;41384;51.418;7.286;2022-07-29T08:57:28;99906.00;;;22.07;53.66
55540;BME280;41384;51.418;7.286;2022-07-29T08:59:54;99906.44;;;22.20;54.19
55540;BME280;41384;51.418;7.286;2022-07-29T09:02:24;99909.44;;;22.48;55.07
55540;BME280;41384;51.418;7.286;2022-07-29T09:04:52;99914.56;;;22.44;54.23
55540;BME280;41384;51.418;7.286;2022-07-29T09:07:18;99915.31;;;22.55;53.96
55540;BME280;41384;51.418;7.286;2022-07-29T09:09:44;99916.09;;;22.55;55.27
55540;BME280;41384;51.418;7.286;2022-07-29T09:12:10;99915.25;;;22.60;54.41
55540;BME280;41384;51.418;7.286;2022-07-29T09:14:39;99914.56;;;22.44;56.62
55540;BME280;41384;51.418;7.286;2022-07-29T09:17:05;99915.78;;;22.27;55.54
55540;BME280;41384;51.418;7.286;2022-07-29T09:19:33;99916.41;;;22.49;55.33
55540;BME280;41384;51.418;7.286;2022-07-29T09:22:01;99913.22;;;22.41;54.72
55540;BME280;41384;51.418;7.286;2022-07-29T09:24:44;99904.75;;;22.58;55.34
55540;BME280;41384;51.418;7.286;2022-07-29T09:27:11;99904.16;;;22.67;55.60
55540;BME280;41384;51.418;7.286;2022-07-29T09:29:37;99914.53;;;23.03;54.50
55540;BME280;41384;51.418;7.286;2022-07-29T09:32:08;99905.56;;;23.32;53.94
55540;BME280;41384;51.418;7.286;2022-07-29T09:34:34;99907.97;;;23.34;53.17
55540;BME280;41384;51.418;7.286;2022-07-29T09:36:59;99907.13;;;22.89;52.66
55540;BME280;41384;51.418;7.286;2022-07-29T09:39:37;99903.34;;;22.02;54.41
55540;BME280;41384;51.418;7.286;2022-07-29T09:42:06;99903.19;;;21.88;54.51
55540;BME280;41384;51.418;7.286;2022-07-29T09:45:00;99899.22;;;22.44;55.51
55540;BME280;41384;51.418;7.286;2022-07-29T09:47:43;99893.34;;;22.08;54.72
55540;BME280;41384;51.418;7.286;2022-07-29T09:50:10;99893.41;;;21.57;55.74
55540;BME280;41384;51.418;7.286;2022-07-29T09:52:48;99890.69;;;21.63;54.88
55540;BME280;41384;51.418;7.286;2022-07-29T09:55:14;99880.88;;;22.22;55.60
55540;BME280;41384;51.418;7.286;2022-07-29T09:57:40;99875.00;;;22.44;55.50
55540;BME280;41384;51.418;7.286;2022-07-29T10:00:09;99877.59;;;22.60;56.06
55540;BME280;41384;51.418;7.286;2022-07-29T10:02:37;99871.69;;;22.28;54.28
55540;BME280;41384;51.418;7.286;2022-07-29T10:05:05;99875.50;;;22.52;55.13
55540;BME280;41384;51.418;7.286;2022-07-29T10:07:46;99874.78;;;22.46;55.69
55540;BME280;41384;51.418;7.286;2022-07-29T10:10:19;99883.19;;;22.34;55.70
55540;BME280;41384;51.418;7.286;2022-07-29T10:12:58;99876.16;;;21.74;56.44
55540;BME280;41384;51.418;7.286;2022-07-29T10:15:27;99888.69;;;22.19;55.64
55540;BME280;41384;51.418;7.286;2022-07-29T10:17:53;99884.22;;;22.38;55.45
55540;BME280;41384;51.418;7.286;2022-07-29T10:20:20;99892.94;;;22.25;56.13
55540;BME280;41384;51.418;7.286;2022-07-29T10:22:47;99890.78;;;22.27;55.27
55540;BME280;41384;51.418;7.286;2022-07-29T10:25:13;99889.81;;;22.47;55.83
55540;BME280;41384;51.418;7.286;2022-07-29T10:27:39;99892.19;;;22.19;56.46
55540;BME280;41384;51.418;7.286;2022-07-29T10:30:05;99896.09;;;22.32;56.72
55540;BME280;41384;51.418;7.286;2022-07-29T10:38:27;99902.44;;;22.47;55.47
55540;BME280;41384;51.418;7.286;2022-07-29T10:43:51;99900.09;;;22.05;55.23
55540;BME280;41384;51.418;7.286;2022-07-29T10:46:18;99893.75;;;22.25;55.26
55540;BME280;41384;51.418;7.286;2022-07-29T10:54:38;99903.22;;;22.18;55.75
55540;BME280;41384;51.418;7.286;2022-07-29T10:57:22;99899.41;;;22.24;55.69
55540;BME280;41384;51.418;7.286;2022-07-29T11:00:25;99905.34;;;21.86;56.41
55540;BME280;41384;51.418;7.286;2022-07-29T11:05:09;99900.91;;;21.71;57.17
55540;BME280;41384;51.418;7.286;2022-07-29T11:07:36;99893.38;;;22.02;57.80
55540;BME280;41384;51.418;7.286;2022-07-29T11:15:03;99902.72;;;21.76;57.75
55540;BME280;41384;51.418;7.286;2022-07-29T11:20:45;99889.31;;;22.10;56.56
55540;BME280;41384;51.418;7.286;2022-07-29T11:31:34;99899.59;;;22.03;56.22
55540;BME280;41384;51.418;7.286;2022-07-29T11:39:41;99897.28;;;21.36;59.77
55540;BME280;41384;51.418;7.286;2022-07-29T11:45:04;99895.91;;;21.94;57.66
55540;BME280;41384;51.418;7.286;2022-07-29T11:47:39;99895.13;;;22.23;57.84
55540;BME280;41384;51.418;7.286;2022-07-29T11:50:08;99886.91;;;22.38;57.14
55540;BME280;41384;51.418;7.286;2022-07-29T11:52:42;99886.81;;;22.78;57.62
55540;BME280;41384;51.418;7.286;2022-07-29T11:55:10;99888.75;;;22.48;56.22
55540;BME280;41384;51.418;7.286;2022-07-29T11:57:44;99897.47;;;22.64;56.40
55540;BME280;41384;51.418;7.286;2022-07-29T12:00:10;99891.84;;;22.85;54.58
55540;BME280;41384;51.418;7.286;2022-07-29T12:02:42;99888.47;;;22.98;55.18
55540;BME280;41384;51.418;7.286;2022-07-29T12:05:09;99884.75;;;23.76;52.71
55540;BME280;41384;51.418;7.286;2022-07-29T12:07:37;99882.28;;;24.32;52.26
55540;BME280;41384;51.418;7.286;2022-07-29T12:10:04;99888.53;;;23.94;51.85
55540;BME280;41384;51.418;7.286;2022-07-29T12:12:30;99888.78;;;23.59;52.61
55540;BME280;41384;51.418;7.286;2022-07-29T12:14:55;99890.84;;;23.24;52.65
55540;BME280;41384;51.418;7.286;2022-07-29T12:17:34;99896.63;;;23.75;51.89
55540;BME280;41384;51.418;7.286;2022-07-29T12:20:03;99887.22;;;23.92;52.07
55540;BME280;41384;51.418;7.286;2022-07-29T12:22:32;99886.56;;;24.33;51.97
55540;BME280;41384;51.418;7.286;2022-07-29T12:25:05;99900.41;;;23.55;52.14
55540;BME280;41384;51.418;7.286;2022-07-29T12:27:31;99901.28;;;23.88;50.73
55540;BME280;41384;51.418;7.286;2022-07-29T12:30:04;99896.25;;;23.82;51.47
55540;BME280;41384;51.418;7.286;2022-07-29T12:32:45;99899.78;;;23.44;52.58
55540;BME280;41384;51.418;7.286;2022-07-29T12:37:39;99897.44;;;23.56;51.32
55540;BME280;41384;51.418;7.286;2022-07-29T12:40:08;99899.56;;;23.59;51.57
55540;BME280;41384;51.418;7.286;2022-07-29T12:42:34;99899.47;;;23.65;50.09
55540;BME280;41384;51.418;7.286;2022-07-29T12:45:00;99894.81;;;24.84;47.94
55540;BME280;41384;51.418;7.286;2022-07-29T12:47:26;99900.19;;;24.70;47.65
55540;BME280;41384;51.418;7.286;2022-07-29T12:50:11;99900.50;;;24.68;47.73
55540;BME280;41384;51.418;7.286;2022-07-29T12:52:37;99899.31;;;25.02;46.73
55540;BME280;41384;51.418;7.286;2022-07-29T12:55:03;99894.72;;;25.03;46.41
55540;BME280;41384;51.418;7.286;2022-07-29T12:57:29;99894.66;;;25.31;45.16
55540;BME280;41384;51.418;7.286;2022-07-29T12:59:59;99900.91;;;25.17;45.45
55540;BME280;41384;51.418;7.286;2022-07-29T13:02:25;99898.88;;;25.97;43.57
55540;BME280;41384;51.418;7.286;2022-07-29T13:04:57;99888.38;;;25.21;44.64
55540;BME280;41384;51.418;7.286;2022-07-29T13:07:25;99886.53;;;25.82;44.99
55540;BME280;41384;51.418;7.286;2022-07-29T13:09:52;99895.63;;;25.86;43.67
55540;BME280;41384;51.418;7.286;2022-07-29T13:12:18;99902.19;;;25.48;45.20
55540;BME280;41384;51.418;7.286;2022-07-29T13:14:45;99902.94;;;26.08;44.04
55540;BME280;41384;51.418;7.286;2022-07-29T13:17:21;99896.91;;;26.74;42.37
55540;BME280;41384;51.418;7.286;2022-07-29T13:20:04;99893.53;;;26.60;43.03
55540;BME280;41384;51.418;7.286;2022-07-29T13:22:30;99896.59;;;25.30;45.17
55540;BME280;41384;51.418;7.286;2022-07-29T13:24:58;99891.69;;;25.04;45.25
55540;BME280;41384;51.418;7.286;2022-07-29T13:27:26;99903.66;;;25.54;44.59
55540;BME280;41384;51.418;7.286;2022-07-29T13:29:52;99912.47;;;26.28;41.93
55540;BME280;41384;51.418;7.286;2022-07-29T13:32:21;99897.59;;;26.80;41.23
55540;BME280;41384;51.418;7.286;2022-07-29T13:34:47;99897.53;;;26.62;41.98
55540;BME280;41384;51.418;7.286;2022-07-29T13:37:12;99900.50;;;26.92;41.83
55540;BME280;41384;51.418;7.286;2022-07-29T13:39:37;99903.66;;;26.45;42.51
55540;BME280;41384;51.418;7.286;2022-07-29T13:42:04;99907.25;;;26.72;43.93
55540;BME280;41384;51.418;7.286;2022-07-29T13:44:30;99904.41;;;27.27;41.41
55540;BME280;41384;51.418;7.286;2022-07-29T13:46:55;99898.06;;;27.66;41.09
55540;BME280;41384;51.418;7.286;2022-07-29T13:49:21;99897.19;;;26.64;42.25
55540;BME280;41384;51.418;7.286;2022-07-29T13:51:46;99897.75;;;25.98;42.19
55540;BME280;41384;51.418;7.286;2022-07-29T13:54:11;99896.91;;;27.23;42.21
55540;BME280;41384;51.418;7.286;2022-07-29T13:56:36;99894.38;;;27.89;39.10